Time;durP1;ratioP1;P1;durP2;ratioP2;P2;SDS_P1;SDS_P2;PMS_P1;PMS_P2;Temp;Humidity;BMP_temperature;BMP_pressure;BME280_temperature;BME280_humidity;BME280_pressure;Samples;Min_cycle;Max_cycle;Signal;HPM_P1;HPM_P2
2023/08/18 00:00:39;;;;;;;0.10;0.10;;;17.80;99.90;;;;;;5045072;28;20378;-76
2023/08/18 00:03:05;;;;;;;0.20;0.20;;;17.80;99.90;;;;;;5060666;28;20110;-76
2023/08/18 00:05:31;;;;;;;0.10;0.10;;;17.70;99.90;;;;;;5069389;28;20044;-76
2023/08/18 00:07:56;;;;;;;0.10;0.10;;;17.70;99.90;;;;;;5051348;28;20041;-76
2023/08/18 00:10:22;;;;;;;0.20;0.20;;;17.70;99.90;;;;;;5070145;28;20037;-76
2023/08/18 00:12:48;;;;;;;0.15;0.15;;;17.70;99.90;;;;;;5049355;28;20045;-76
2023/08/18 00:15:13;;;;;;;0.10;0.10;;;17.70;99.90;;;;;;5061966;28;20628;-76
2023/08/18 00:17:41;;;;;;;0.20;0.20;;;17.70;99.90;;;;;;5063714;28;20048;-76
2023/08/18 00:20:08;;;;;;;0.20;0.20;;;17.60;99.90;;;;;;5066636;28;20052;-76
2023/08/18 00:22:34;;;;;;;0.20;0.20;;;17.60;99.90;;;;;;5063734;28;20045;-76
2023/08/18 00:25:00;;;;;;;0.17;0.17;;;17.60;99.90;;;;;;5052762;28;20637;-76
2023/08/18 00:27:25;;;;;;;0.10;0.10;;;17.50;99.90;;;;;;5051875;28;20040;-76
2023/08/18 00:29:51;;;;;;;0.10;0.10;;;17.50;99.90;;;;;;5050929;28;20082;-76
2023/08/18 00:32:17;;;;;;;0.10;0.10;;;17.50;99.90;;;;;;5068439;28;20043;-76
2023/08/18 00:34:42;;;;;;;0.20;0.20;;;17.40;99.90;;;;;;5067149;28;20407;-76
2023/08/18 00:37:08;;;;;;;0.20;0.20;;;17.40;99.90;;;;;;5067742;28;20036;-76
2023/08/18 00:39:34;;;;;;;0.20;0.20;;;17.40;99.90;;;;;;5050372;28;20044;-76
2023/08/18 00:42:00;;;;;;;0.15;0.15;;;17.30;99.90;;;;;;5050781;28;20510;-76
2023/08/18 00:44:25;;;;;;;0.20;0.20;;;17.30;99.90;;;;;;5069149;28;20032;-76
2023/08/18 00:46:51;;;;;;;0.10;0.10;;;17.30;99.90;;;;;;5050614;28;20101;-76
2023/08/18 00:49:18;;;;;;;0.13;0.13;;;17.30;99.90;;;;;;5051557;28;20408;-76
2023/08/18 00:51:45;;;;;;;0.10;0.10;;;17.30;99.90;;;;;;5050805;28;20049;-76
2023/08/18 00:54:12;;;;;;;0.13;0.13;;;17.30;99.90;;;;;;5048362;28;20055;-76
2023/08/18 00:56:39;;;;;;;0.10;0.10;;;17.30;99.90;;;;;;5045956;28;20037;-76
2023/08/18 00:59:06;;;;;;;0.10;0.10;;;17.20;99.90;;;;;;5044901;28;20048;-76
2023/08/18 01:01:33;;;;;;;0.20;0.20;;;17.20;99.90;;;;;;5059204;28;20047;-75
2023/08/18 01:03:59;;;;;;;0.20;0.20;;;17.30;99.90;;;;;;5048080;28;20403;-76
2023/08/18 01:06:25;;;;;;;0.13;0.13;;;17.30;99.90;;;;;;5045638;28;20048;-76
2023/08/18 01:08:51;;;;;;;0.20;0.20;;;17.30;99.90;;;;;;5049663;28;20053;-76
2023/08/18 01:11:50;;;;;;;0.10;0.10;;;17.30;99.90;;;;;;5047942;28;20055;-76
2023/08/18 01:14:56;;;;;;;0.10;0.10;;;17.20;99.90;;;;;;5048817;28;20057;-76
2023/08/18 01:17:35;;;;;;;0.10;0.10;;;17.20;99.90;;;;;;4993251;28;20070;-76
2023/08/18 01:20:03;;;;;;;0.10;0.10;;;17.30;99.90;;;;;;5069068;28;20045;-76
2023/08/18 01:22:30;;;;;;;0.20;0.20;;;17.20;99.90;;;;;;5047606;28;20033;-76
2023/08/18 01:25:00;;;;;;;0.20;0.20;;;17.30;99.90;;;;;;5036823;28;20077;-76
2023/08/18 01:27:28;;;;;;;0.10;0.10;;;17.20;99.90;;;;;;5068761;28;20044;-76
2023/08/18 01:29:54;;;;;;;0.15;0.15;;;17.30;99.90;;;;;;5067684;28;20100;-76
2023/08/18 01:32:24;;;;;;;0.20;0.20;;;17.20;99.90;;;;;;5074392;28;20037;-76
2023/08/18 01:34:52;;;;;;;0.10;0.10;;;17.30;99.90;;;;;;5040614;28;20045;-76
2023/08/18 01:37:19;;;;;;;0.10;0.10;;;17.30;99.90;;;;;;5068271;28;20068;-76
2023/08/18 01:39:46;;;;;;;0.20;0.20;;;17.30;99.90;;;;;;5067066;28;20436;-76
2023/08/18 01:42:13;;;;;;;0.10;0.10;;;17.30;99.90;;;;;;5067098;28;20048;-76
2023/08/18 01:44:39;;;;;;;0.10;0.10;;;17.30;99.90;;;;;;5047788;28;20041;-77
2023/08/18 01:47:04;;;;;;;0.20;0.20;;;17.30;99.90;;;;;;5067151;28;20051;-76
2023/08/18 01:49:30;;;;;;;0.20;0.20;;;17.30;99.90;;;;;;5050537;28;20028;-76
2023/08/18 01:51:56;;;;;;;0.10;0.10;;;17.30;99.90;;;;;;5046668;28;20068;-75
2023/08/18 01:54:22;;;;;;;0.10;0.10;;;17.30;99.90;;;;;;5047993;28;20094;-76
2023/08/18 01:56:47;;;;;;;0.10;0.10;;;17.30;99.90;;;;;;5045476;28;20045;-76
2023/08/18 01:59:14;;;;;;;0.10;0.10;;;17.30;99.90;;;;;;5065401;28;20040;-76
2023/08/18 02:01:40;;;;;;;0.20;0.20;;;17.30;99.90;;;;;;5044889;28;20086;-76
2023/08/18 02:04:05;;;;;;;0.20;0.20;;;17.30;99.90;;;;;;5047302;28;20048;-76
2023/08/18 02:06:31;;;;;;;0.10;0.10;;;17.30;99.90;;;;;;5065951;28;20044;-76
2023/08/18 02:08:57;;;;;;;0.17;0.17;;;17.30;99.90;;;;;;5056987;28;20114;-76
2023/08/18 02:11:22;;;;;;;0.10;0.10;;;17.40;99.90;;;;;;5066908;28;20056;-76
2023/08/18 02:13:48;;;;;;;0.10;0.10;;;17.40;99.90;;;;;;5044071;28;20099;-76
2023/08/18 02:16:14;;;;;;;0.20;0.20;;;17.40;99.90;;;;;;5041464;28;20049;-76
2023/08/18 02:18:40;;;;;;;0.20;0.20;;;17.30;99.90;;;;;;5048229;28;20047;-76
2023/08/18 02:21:05;;;;;;;0.10;0.10;;;17.40;99.90;;;;;;5045929;28;20079;-76
2023/08/18 02:23:31;;;;;;;0.20;0.20;;;17.30;99.90;;;;;;5046126;28;20040;-75
2023/08/18 02:26:04;;;;;;;0.17;0.17;;;17.30;99.90;;;;;;5041498;28;20041;-76
2023/08/18 02:28:30;;;;;;;0.13;0.13;;;17.30;99.90;;;;;;5038260;28;20033;-76
2023/08/18 02:31:07;;;;;;;0.20;0.20;;;17.30;99.90;;;;;;5040886;28;20045;-76
2023/08/18 02:33:34;;;;;;;0.20;0.20;;;17.30;99.90;;;;;;5042715;28;20503;-76
2023/08/18 02:36:00;;;;;;;0.13;0.13;;;17.30;99.90;;;;;;5045952;28;20037;-76
2023/08/18 02:38:27;;;;;;;0.17;0.17;;;17.30;99.90;;;;;;5045200;28;20714;-76
2023/08/18 02:40:53;;;;;;;0.15;0.15;;;17.30;99.90;;;;;;5047411;28;20041;-76
2023/08/18 02:43:20;;;;;;;0.10;0.10;;;17.40;99.90;;;;;;5041932;28;20049;-76
2023/08/18 02:45:45;;;;;;;0.20;0.20;;;17.30;99.90;;;;;;5045408;28;20049;-76
2023/08/18 02:48:12;;;;;;;0.20;0.20;;;17.30;99.90;;;;;;5040976;28;20642;-75
2023/08/18 02:50:38;;;;;;;0.15;0.15;;;17.30;99.90;;;;;;5047159;28;20041;-76
2023/08/18 02:53:04;;;;;;;0.10;0.10;;;17.30;99.90;;;;;;5048728;28;20049;-76
2023/08/18 02:55:30;;;;;;;0.13;0.13;;;17.40;99.90;;;;;;5048466;28;20499;-76
2023/08/18 02:57:56;;;;;;;0.13;0.13;;;17.40;99.90;;;;;;5049791;28;20060;-76
2023/08/18 03:00:22;;;;;;;0.10;0.10;;;17.40;99.90;;;;;;5051930;28;20076;-76
2023/08/18 03:02:49;;;;;;;0.10;0.10;;;17.40;99.90;;;;;;5038739;28;20045;-76
2023/08/18 03:05:16;;;;;;;0.10;0.10;;;17.30;99.90;;;;;;5043963;28;20049;-76
2023/08/18 03:07:41;;;;;;;0.20;0.20;;;17.40;99.90;;;;;;5051391;28;20059;-75
2023/08/18 03:10:07;;;;;;;0.10;0.10;;;17.40;99.90;;;;;;5046693;28;20403;-76
2023/08/18 03:12:33;;;;;;;0.10;0.10;;;17.40;99.90;;;;;;5045642;28;20482;-76
2023/08/18 03:14:58;;;;;;;0.10;0.10;;;17.40;99.90;;;;;;5054919;28;20088;-75
2023/08/18 03:17:24;;;;;;;0.20;0.20;;;17.40;99.90;;;;;;5067358;28;20680;-75
2023/08/18 03:19:50;;;;;;;0.10;0.10;;;17.40;99.90;;;;;;5069725;28;20126;-75
2023/08/18 03:22:15;;;;;;;0.10;0.10;;;17.40;99.90;;;;;;5053952;28;20453;-76
2023/08/18 03:24:41;;;;;;;0.10;0.10;;;17.40;99.90;;;;;;5070581;28;20067;-76
2023/08/18 03:27:07;;;;;;;0.20;0.20;;;17.50;99.90;;;;;;5060426;28;20044;-76
2023/08/18 03:29:32;;;;;;;0.20;0.20;;;17.50;99.90;;;;;;5052897;28;20040;-76
2023/08/18 03:31:58;;;;;;;0.10;0.10;;;17.40;99.90;;;;;;5068818;28;20049;-76
2023/08/18 03:34:24;;;;;;;0.10;0.10;;;17.50;99.90;;;;;;5049145;28;20040;-76
2023/08/18 03:36:49;;;;;;;0.10;0.10;;;17.50;99.90;;;;;;5070775;28;20041;-76
2023/08/18 03:39:15;;;;;;;0.10;0.10;;;17.50;99.90;;;;;;5052741;28;20097;-75
2023/08/18 03:41:41;;;;;;;0.10;0.10;;;17.50;99.90;;;;;;5053566;28;20040;-76
2023/08/18 03:44:06;;;;;;;0.20;0.20;;;17.40;99.90;;;;;;5038435;28;20041;-75
2023/08/18 03:46:33;;;;;;;0.10;0.10;;;17.50;99.90;;;;;;5053117;28;20589;-76
2023/08/18 03:48:59;;;;;;;0.20;0.20;;;17.50;99.90;;;;;;5070457;28;21856;-76
2023/08/18 03:51:25;;;;;;;0.20;0.20;;;17.50;99.90;;;;;;5072290;28;20052;-76
2023/08/18 03:53:51;;;;;;;0.10;0.10;;;17.50;99.90;;;;;;5050156;28;20198;-75
2023/08/18 03:56:17;;;;;;;0.20;0.20;;;17.50;99.90;;;;;;5053011;28;20047;-76
2023/08/18 03:58:42;;;;;;;0.20;0.20;;;17.50;99.90;;;;;;5050472;28;20386;-76
2023/08/18 04:01:08;;;;;;;0.20;0.20;;;17.50;99.90;;;;;;5049388;28;20052;-75
2023/08/18 04:03:36;;;;;;;0.10;0.10;;;17.50;99.90;;;;;;5045592;28;20036;-76
2023/08/18 04:06:03;;;;;;;0.10;0.10;;;17.50;99.90;;;;;;5033448;28;20045;-75
2023/08/18 04:08:31;;;;;;;0.20;0.20;;;17.50;99.90;;;;;;5049362;28;20045;-76
2023/08/18 04:10:56;;;;;;;0.20;0.20;;;17.50;99.90;;;;;;5052994;28;20047;-76
2023/08/18 04:13:22;;;;;;;0.20;0.20;;;17.50;99.90;;;;;;5053640;28;20040;-76
2023/08/18 04:15:48;;;;;;;0.20;0.20;;;17.50;99.90;;;;;;5049994;28;20055;-76
2023/08/18 04:18:13;;;;;;;0.20;0.20;;;17.50;99.90;;;;;;5046650;28;20121;-76
2023/08/18 04:20:40;;;;;;;0.10;0.10;;;17.50;99.90;;;;;;5069211;28;20039;-76
2023/08/18 04:23:06;;;;;;;0.20;0.20;;;17.50;99.90;;;;;;5045951;28;20381;-75
2023/08/18 04:25:31;;;;;;;0.10;0.10;;;17.50;99.90;;;;;;5066399;28;20039;-75
2023/08/18 04:27:58;;;;;;;0.10;0.10;;;17.60;99.90;;;;;;5045557;28;20059;-76
2023/08/18 04:30:24;;;;;;;0.10;0.10;;;17.60;99.90;;;;;;5048317;28;20480;-76
2023/08/18 04:32:50;;;;;;;0.10;0.10;;;17.60;99.90;;;;;;5069525;28;20039;-76
2023/08/18 04:35:16;;;;;;;0.20;0.20;;;17.60;99.90;;;;;;5069607;28;20079;-76
2023/08/18 04:37:41;;;;;;;0.20;0.20;;;17.60;99.90;;;;;;5066064;28;20088;-76
2023/08/18 04:40:08;;;;;;;0.10;0.10;;;17.60;99.90;;;;;;5048315;28;20128;-76
2023/08/18 04:42:34;;;;;;;0.10;0.10;;;17.60;99.90;;;;;;5052154;28;20052;-76
2023/08/18 04:44:59;;;;;;;0.20;0.20;;;17.60;99.90;;;;;;5051678;28;20041;-75
2023/08/18 04:47:25;;;;;;;0.20;0.20;;;17.60;99.90;;;;;;5052493;28;20430;-75
2023/08/18 04:49:51;;;;;;;0.10;0.10;;;17.60;99.90;;;;;;5050290;28;20052;-75
2023/08/18 04:52:17;;;;;;;0.10;0.10;;;17.60;99.90;;;;;;5048137;28;20051;-76
2023/08/18 04:54:42;;;;;;;0.20;0.20;;;17.70;99.90;;;;;;5063411;28;20036;-76
2023/08/18 04:57:08;;;;;;;0.20;0.20;;;17.70;99.90;;;;;;5050423;28;20051;-76
2023/08/18 04:59:34;;;;;;;0.15;0.15;;;17.70;99.90;;;;;;5050827;28;20028;-75
2023/08/18 05:01:59;;;;;;;0.20;0.20;;;17.70;99.90;;;;;;5048784;28;20128;-76
2023/08/18 05:04:25;;;;;;;0.20;0.20;;;17.70;99.90;;;;;;5040697;28;20033;-76
2023/08/18 05:06:51;;;;;;;0.10;0.10;;;17.70;99.90;;;;;;5050853;28;20052;-75
2023/08/18 05:09:17;;;;;;;0.20;0.20;;;17.70;99.90;;;;;;5068622;28;20060;-76
2023/08/18 05:11:42;;;;;;;0.10;0.10;;;17.70;99.90;;;;;;5050774;28;20075;-75
2023/08/18 05:14:08;;;;;;;0.20;0.20;;;17.70;99.90;;;;;;5068970;28;20036;-76
2023/08/18 05:16:34;;;;;;;0.10;0.10;;;17.80;99.90;;;;;;5051257;28;20052;-75
2023/08/18 05:19:00;;;;;;;0.20;0.20;;;17.70;99.90;;;;;;5050604;28;20076;-76
2023/08/18 05:21:25;;;;;;;0.10;0.10;;;17.80;99.90;;;;;;5051794;28;20476;-75
2023/08/18 05:23:51;;;;;;;0.20;0.20;;;17.80;99.90;;;;;;5068294;28;20048;-76
2023/08/18 05:26:17;;;;;;;0.20;0.20;;;17.80;99.90;;;;;;5047877;28;20043;-75
2023/08/18 05:28:44;;;;;;;0.10;0.10;;;17.80;99.90;;;;;;5065325;28;20054;-75
2023/08/18 05:31:10;;;;;;;0.10;0.10;;;17.80;99.90;;;;;;5046992;28;20043;-76
2023/08/18 05:33:37;;;;;;;0.10;0.10;;;17.80;99.90;;;;;;5043249;28;20044;-75
2023/08/18 05:36:04;;;;;;;0.17;0.17;;;17.80;99.90;;;;;;5067450;28;20043;-75
2023/08/18 05:38:30;;;;;;;0.20;0.20;;;17.90;99.90;;;;;;5069162;28;20057;-76
2023/08/18 05:41:07;;;;;;;0.20;0.20;;;17.90;99.90;;;;;;5052069;28;20040;-77
2023/08/18 05:43:37;;;;;;;0.20;0.20;;;17.90;99.90;;;;;;5049021;28;20066;-75
2023/08/18 05:46:03;;;;;;;0.17;0.17;;;17.90;99.90;;;;;;5046826;28;20047;-75
2023/08/18 05:48:32;;;;;;;0.10;0.10;;;17.90;99.90;;;;;;5051639;28;20400;-75
2023/08/18 05:51:01;;;;;;;0.15;0.15;;;17.90;99.90;;;;;;5049611;28;20044;-75
2023/08/18 05:53:28;;;;;;;0.13;0.13;;;17.90;99.90;;;;;;5068071;28;20048;-75
2023/08/18 05:55:53;;;;;;;0.13;0.13;;;17.90;99.90;;;;;;5067999;28;20475;-75
2023/08/18 05:58:19;;;;;;;0.10;0.10;;;17.90;99.90;;;;;;5052101;28;20036;-76
2023/08/18 06:00:47;;;;;;;0.20;0.20;;;18.00;99.90;;;;;;5066126;28;20037;-76
2023/08/18 06:03:13;;;;;;;0.10;0.10;;;17.90;99.90;;;;;;5044008;28;20102;-76
2023/08/18 06:05:39;;;;;;;0.20;0.20;;;18.00;99.90;;;;;;5060079;28;20037;-75
2023/08/18 06:08:05;;;;;;;0.20;0.20;;;18.00;99.90;;;;;;5044695;28;20045;-76
2023/08/18 06:10:31;;;;;;;0.10;0.10;;;18.00;99.90;;;;;;5066246;28;20045;-75
2023/08/18 06:12:57;;;;;;;0.20;0.20;;;18.00;99.90;;;;;;5051385;28;20043;-76
2023/08/18 06:15:23;;;;;;;0.10;0.10;;;18.00;99.90;;;;;;5066820;28;20077;-75
2023/08/18 06:17:49;;;;;;;0.10;0.10;;;18.00;99.90;;;;;;5059297;28;20049;-75
2023/08/18 06:20:15;;;;;;;0.20;0.20;;;18.00;99.90;;;;;;5048412;28;20056;-75
2023/08/18 06:22:41;;;;;;;0.20;0.20;;;18.00;99.90;;;;;;5046107;28;20105;-75
2023/08/18 06:25:07;;;;;;;0.20;0.20;;;18.00;99.90;;;;;;5049697;28;20056;-76
2023/08/18 06:27:34;;;;;;;0.10;0.10;;;18.00;99.90;;;;;;5058129;28;20048;-75
2023/08/18 06:29:59;;;;;;;0.10;0.10;;;18.00;99.90;;;;;;5071347;28;20431;-75
2023/08/18 06:32:25;;;;;;;0.10;0.10;;;18.10;99.90;;;;;;5072356;28;20049;-75
2023/08/18 06:34:51;;;;;;;0.20;0.20;;;18.10;99.90;;;;;;5067960;28;20048;-76
2023/08/18 06:37:18;;;;;;;0.20;0.20;;;18.10;99.90;;;;;;5048897;28;20045;-76
2023/08/18 06:39:44;;;;;;;0.10;0.10;;;18.20;99.90;;;;;;5067908;28;20392;-76
2023/08/18 06:42:11;;;;;;;0.20;0.20;;;18.20;99.90;;;;;;5051065;28;20504;-81
2023/08/18 06:44:37;;;;;;;0.20;0.20;;;18.20;99.90;;;;;;5049093;28;20037;-76
2023/08/18 06:47:03;;;;;;;0.20;0.20;;;18.20;99.90;;;;;;5052926;28;20575;-75
2023/08/18 06:49:28;;;;;;;0.10;0.10;;;18.20;99.90;;;;;;5048399;28;20047;-76
2023/08/18 06:51:54;;;;;;;0.20;0.20;;;18.30;99.90;;;;;;5045988;28;20067;-77
2023/08/18 06:54:20;;;;;;;0.20;0.20;;;18.30;99.90;;;;;;5065186;28;20498;-76
2023/08/18 06:56:45;;;;;;;0.15;0.15;;;18.30;99.90;;;;;;5064628;28;20044;-77
2023/08/18 06:59:12;;;;;;;0.20;0.20;;;18.30;99.90;;;;;;5071312;28;20041;-73
2023/08/18 07:01:39;;;;;;;0.10;0.10;;;18.40;99.90;;;;;;5065187;28;20128;-76
2023/08/18 07:04:05;;;;;;;0.20;0.20;;;18.40;99.90;;;;;;5047502;28;20147;-77
2023/08/18 07:06:34;;;;;;;0.17;0.17;;;18.40;99.90;;;;;;5042039;28;20037;-76
2023/08/18 07:09:01;;;;;;;0.10;0.10;;;18.40;99.90;;;;;;5045282;28;20553;-77
2023/08/18 07:11:27;;;;;;;0.17;0.17;;;18.40;99.90;;;;;;5063761;28;20032;-76
2023/08/18 07:13:52;;;;;;;0.20;0.20;;;18.40;99.90;;;;;;5072873;28;20037;-76
2023/08/18 07:16:18;;;;;;;0.20;0.20;;;18.40;99.90;;;;;;5065802;28;20052;-77
2023/08/18 07:18:44;;;;;;;0.20;0.20;;;18.40;99.90;;;;;;5051037;28;20047;-77
2023/08/18 07:21:09;;;;;;;0.10;0.10;;;18.50;99.90;;;;;;5046098;28;20037;-76
2023/08/18 07:23:35;;;;;;;0.20;0.20;;;18.50;99.90;;;;;;5068767;28;20170;-76
2023/08/18 07:26:02;;;;;;;0.17;0.17;;;18.50;99.90;;;;;;5049454;28;20040;-76
2023/08/18 07:28:28;;;;;;;0.20;0.20;;;18.50;99.90;;;;;;5042093;28;20048;-77
2023/08/18 07:30:53;;;;;;;0.20;0.20;;;18.50;99.90;;;;;;5049639;28;20040;-77
2023/08/18 07:33:20;;;;;;;0.20;0.20;;;18.50;99.90;;;;;;5065996;28;20131;-77
2023/08/18 07:35:46;;;;;;;0.20;0.20;;;18.50;99.90;;;;;;5064868;28;20442;-77
2023/08/18 07:38:12;;;;;;;0.17;0.17;;;18.60;99.90;;;;;;5049163;28;20047;-83
2023/08/18 07:40:37;;;;;;;0.10;0.10;;;18.60;99.90;;;;;;5047749;28;20044;-76
2023/08/18 07:43:03;;;;;;;0.13;0.13;;;18.60;99.90;;;;;;5048820;28;20056;-76
2023/08/18 07:45:29;;;;;;;0.20;0.20;;;18.60;99.90;;;;;;5052218;28;20039;-75
2023/08/18 07:47:55;;;;;;;0.20;0.20;;;18.60;99.90;;;;;;5053844;28;20044;-76
2023/08/18 07:50:21;;;;;;;0.20;0.20;;;18.70;99.90;;;;;;5069317;28;20468;-76
2023/08/18 07:52:46;;;;;;;0.20;0.20;;;18.70;99.90;;;;;;5064904;28;20094;-76
2023/08/18 07:55:13;;;;;;;0.20;0.20;;;18.70;99.90;;;;;;5051238;28;20124;-76
2023/08/18 07:57:39;;;;;;;0.10;0.10;;;18.70;99.90;;;;;;5053220;28;20059;-77
2023/08/18 08:00:08;;;;;;;0.20;0.20;;;18.70;99.90;;;;;;5046548;28;20037;-76
2023/08/18 08:02:35;;;;;;;0.20;0.20;;;18.70;99.90;;;;;;5043135;28;20086;-77
2023/08/18 08:05:02;;;;;;;0.10;0.10;;;18.70;99.90;;;;;;5043211;28;20119;-76
2023/08/18 08:07:32;;;;;;;0.10;0.10;;;18.70;99.90;;;;;;5040210;28;20400;-77
2023/08/18 08:10:02;;;;;;;0.10;0.10;;;18.80;99.90;;;;;;5047746;28;20083;-76
2023/08/18 08:12:27;;;;;;;0.20;0.20;;;18.80;99.90;;;;;;5047956;28;20137;-77
2023/08/18 08:14:53;;;;;;;0.10;0.10;;;18.80;99.90;;;;;;5047700;28;20499;-77
2023/08/18 08:17:19;;;;;;;0.20;0.20;;;18.80;99.90;;;;;;5041218;28;20048;-77
2023/08/18 08:19:44;;;;;;;0.10;0.10;;;18.90;99.90;;;;;;5050135;28;20048;-77
2023/08/18 08:22:10;;;;;;;0.20;0.20;;;18.90;99.90;;;;;;5066773;28;20044;-77
2023/08/18 08:24:36;;;;;;;0.20;0.20;;;19.00;99.90;;;;;;5044149;28;20051;-76
2023/08/18 08:27:01;;;;;;;0.20;0.20;;;19.00;99.90;;;;;;5058024;28;20124;-77
2023/08/18 08:29:27;;;;;;;0.20;0.20;;;19.10;99.90;;;;;;5041324;28;20044;-77
2023/08/18 08:31:53;;;;;;;0.20;0.20;;;19.10;99.90;;;;;;5063240;28;20090;-77
2023/08/18 08:34:18;;;;;;;0.20;0.20;;;19.20;99.90;;;;;;5057821;28;20044;-78
2023/08/18 08:36:44;;;;;;;0.20;0.20;;;19.20;99.90;;;;;;5064058;28;20033;-76
2023/08/18 08:39:10;;;;;;;0.20;0.20;;;19.30;99.90;;;;;;5049258;28;20048;-76
2023/08/18 08:41:35;;;;;;;0.20;0.20;;;19.40;99.90;;;;;;5057154;28;20128;-75
2023/08/18 08:44:01;;;;;;;0.15;0.15;;;19.40;99.90;;;;;;5042099;28;20056;-75
2023/08/18 08:46:29;;;;;;;0.10;0.10;;;19.50;99.90;;;;;;5038422;28;20036;-75
2023/08/18 08:49:00;;;;;;;0.13;0.13;;;19.50;99.90;;;;;;5064356;28;20087;-76
2023/08/18 08:51:28;;;;;;;0.20;0.20;;;19.50;99.90;;;;;;5041103;28;20082;-77
2023/08/18 08:53:59;;;;;;;0.20;0.20;;;19.60;99.90;;;;;;5047999;28;20041;-76
2023/08/18 08:56:30;;;;;;;0.15;0.15;;;19.60;99.90;;;;;;5068068;28;20048;-76
2023/08/18 08:58:56;;;;;;;0.20;0.20;;;19.70;99.90;;;;;;5066562;28;20496;-77
2023/08/18 09:01:23;;;;;;;0.20;0.20;;;19.70;99.90;;;;;;5060364;28;20072;-76
2023/08/18 09:03:50;;;;;;;0.10;0.10;;;19.70;99.90;;;;;;5063514;28;20036;-76
2023/08/18 09:06:16;;;;;;;0.20;0.20;;;19.80;99.90;;;;;;5063305;28;20075;-75
2023/08/18 09:08:41;;;;;;;0.20;0.20;;;19.90;99.90;;;;;;5047330;28;20037;-76
2023/08/18 09:11:08;;;;;;;0.20;0.20;;;19.90;99.90;;;;;;5060382;28;20036;-76
2023/08/18 09:13:35;;;;;;;0.20;0.20;;;19.90;99.90;;;;;;5043511;28;20510;-76
2023/08/18 09:16:03;;;;;;;0.10;0.10;;;20.00;99.90;;;;;;5059886;28;20064;-76
2023/08/18 09:18:32;;;;;;;0.20;0.20;;;20.00;99.90;;;;;;5035383;28;20053;-76
2023/08/18 09:21:04;;;;;;;0.20;0.20;;;20.00;99.90;;;;;;5049158;28;20467;-76
2023/08/18 09:23:30;;;;;;;0.20;0.20;;;20.10;99.90;;;;;;5050096;28;20052;-75
2023/08/18 09:26:00;;;;;;;0.20;0.20;;;20.10;99.90;;;;;;5047844;28;20449;-76
2023/08/18 09:28:26;;;;;;;0.20;0.20;;;20.10;99.90;;;;;;5050280;28;20048;-76
2023/08/18 09:30:52;;;;;;;0.20;0.20;;;20.20;99.90;;;;;;5045427;28;20128;-76
2023/08/18 09:33:21;;;;;;;0.20;0.20;;;20.20;99.90;;;;;;5013996;28;20044;-75
2023/08/18 09:35:56;;;;;;;0.10;0.10;;;20.20;99.90;;;;;;5043700;28;20119;-76
2023/08/18 09:38:22;;;;;;;0.20;0.20;;;20.30;99.90;;;;;;5040862;28;20083;-77
2023/08/18 09:40:55;;;;;;;0.20;0.20;;;20.30;99.90;;;;;;5065739;28;20072;-77
2023/08/18 09:43:22;;;;;;;0.20;0.20;;;20.30;99.90;;;;;;5062656;28;20506;-76
2023/08/18 09:45:48;;;;;;;0.20;0.20;;;20.30;99.90;;;;;;5045198;28;20511;-77
2023/08/18 09:48:15;;;;;;;0.20;0.20;;;20.30;99.90;;;;;;5063060;28;20044;-76
2023/08/18 09:50:45;;;;;;;0.17;0.17;;;20.40;99.90;;;;;;5048055;28;20044;-76
2023/08/18 09:53:13;;;;;;;0.20;0.20;;;20.50;99.90;;;;;;5050578;28;20135;-76
2023/08/18 09:55:46;;;;;;;0.20;0.20;;;20.50;99.90;;;;;;5068788;28;20044;-76
2023/08/18 09:58:37;;;;;;;0.20;0.20;;;20.60;99.90;;;;;;5050928;28;20048;-76
2023/08/18 10:01:05;;;;;;;0.20;0.20;;;20.60;99.90;;;;;;5051416;28;20040;-76
2023/08/18 10:03:35;;;;;;;0.20;0.20;;;20.70;99.90;;;;;;5068410;28;20384;-76
2023/08/18 10:06:01;;;;;;;0.20;0.20;;;20.80;99.90;;;;;;5055250;28;20059;-75
2023/08/18 10:08:27;;;;;;;0.20;0.20;;;20.80;99.90;;;;;;5054348;28;20075;-75
2023/08/18 10:10:52;;;;;;;0.20;0.20;;;20.90;99.90;;;;;;5073362;28;20040;-75
2023/08/18 10:13:19;;;;;;;0.20;0.20;;;20.90;99.90;;;;;;5071806;28;20040;-75
2023/08/18 10:15:47;;;;;;;0.20;0.20;;;21.00;99.90;;;;;;5073394;28;20059;-75
2023/08/18 10:18:13;;;;;;;0.20;0.20;;;21.00;99.90;;;;;;5052078;28;20053;-75
2023/08/18 10:20:55;;;;;;;0.20;0.20;;;21.10;99.90;;;;;;5053269;28;20048;-75
2023/08/18 10:23:24;;;;;;;0.20;0.20;;;21.20;99.90;;;;;;5054713;28;20441;-75
2023/08/18 10:25:51;;;;;;;0.20;0.20;;;21.30;99.90;;;;;;5072342;28;20036;-75
2023/08/18 10:28:19;;;;;;;0.20;0.20;;;21.30;99.90;;;;;;5053860;28;20488;-75
2023/08/18 10:30:57;;;;;;;0.20;0.20;;;21.40;99.90;;;;;;5053673;28;20052;-75
2023/08/18 10:33:36;;;;;;;0.20;0.20;;;21.40;99.90;;;;;;5072184;28;20044;-75
2023/08/18 10:36:04;;;;;;;0.20;0.20;;;21.50;99.90;;;;;;5072843;28;20516;-75
2023/08/18 10:38:30;;;;;;;0.30;0.30;;;21.40;99.90;;;;;;5050723;28;20056;-75
2023/08/18 10:40:56;;;;;;;0.20;0.20;;;21.50;99.90;;;;;;5055077;28;20041;-75
2023/08/18 10:43:25;;;;;;;0.20;0.20;;;21.50;99.90;;;;;;5049977;28;20051;-75
2023/08/18 10:45:59;;;;;;;0.10;0.10;;;21.50;99.90;;;;;;5052687;28;20048;-75
2023/08/18 10:48:32;;;;;;;0.20;0.20;;;21.60;99.90;;;;;;5069201;28;20393;-75
2023/08/18 10:50:58;;;;;;;0.20;0.20;;;21.60;99.90;;;;;;5065185;28;20040;-75
2023/08/18 10:53:24;;;;;;;0.15;0.15;;;21.60;99.90;;;;;;5052026;28;20052;-76
2023/08/18 10:55:53;;;;;;;0.20;0.20;;;21.70;99.90;;;;;;5070484;28;20393;-75
2023/08/18 10:58:20;;;;;;;0.20;0.20;;;21.70;99.90;;;;;;5068989;28;20123;-75
2023/08/18 11:00:46;;;;;;;0.20;0.20;;;21.70;99.90;;;;;;5049252;28;20048;-75
2023/08/18 11:03:13;;;;;;;0.22;0.22;;;21.80;99.90;;;;;;5044081;28;20040;-76
2023/08/18 11:05:39;;;;;;;0.20;0.20;;;21.80;99.90;;;;;;5047155;28;20055;-75
2023/08/18 11:08:12;;;;;;;0.20;0.20;;;21.90;99.90;;;;;;5051968;28;20044;-75
2023/08/18 11:10:39;;;;;;;0.17;0.17;;;22.00;99.90;;;;;;5071940;28;20503;-75
2023/08/18 11:13:06;;;;;;;0.20;0.20;;;22.00;99.90;;;;;;5051655;28;20040;-74
2023/08/18 11:15:32;;;;;;;0.20;0.20;;;22.10;99.90;;;;;;5050685;28;20714;-74
2023/08/18 11:17:58;;;;;;;0.20;0.20;;;22.20;99.90;;;;;;5051768;28;20074;-75
2023/08/18 11:20:23;;;;;;;0.20;0.20;;;22.20;99.90;;;;;;5050486;28;20040;-75
2023/08/18 11:22:53;;;;;;;0.20;0.20;;;22.30;99.90;;;;;;5051670;28;20059;-75
2023/08/18 11:25:25;;;;;;;0.20;0.20;;;22.30;99.90;;;;;;5068891;28;20036;-75
2023/08/18 11:27:52;;;;;;;0.20;0.20;;;22.30;99.90;;;;;;5057299;28;20485;-76
2023/08/18 11:30:19;;;;;;;0.20;0.20;;;22.30;99.90;;;;;;5057740;28;20036;-76
2023/08/18 11:32:45;;;;;;;0.20;0.20;;;22.30;99.90;;;;;;5052245;28;21447;-76
2023/08/18 11:35:13;;;;;;;0.20;0.20;;;22.40;99.90;;;;;;5069360;28;20047;-75
2023/08/18 11:37:44;;;;;;;0.20;0.20;;;22.40;99.90;;;;;;5069337;28;20056;-74
2023/08/18 11:40:12;;;;;;;0.20;0.20;;;22.40;99.90;;;;;;5064852;28;20805;-75
2023/08/18 11:42:42;;;;;;;0.20;0.20;;;22.50;99.90;;;;;;5056598;28;20048;-75
2023/08/18 11:45:15;;;;;;;0.20;0.20;;;22.60;99.90;;;;;;5049585;28;20040;-75
2023/08/18 11:47:44;;;;;;;0.20;0.20;;;22.60;99.90;;;;;;5068480;28;21059;-75
2023/08/18 11:50:13;;;;;;;0.20;0.20;;;22.70;99.90;;;;;;5044787;28;20045;-75
2023/08/18 11:52:52;;;;;;;0.20;0.20;;;22.70;99.90;;;;;;5051611;28;20067;-77
2023/08/18 11:55:50;;;;;;;0.20;0.20;;;22.80;99.90;;;;;;5068876;28;20048;-75
2023/08/18 11:58:15;;;;;;;0.20;0.20;;;22.80;99.90;;;;;;5033564;28;20045;-76
2023/08/18 12:00:46;;;;;;;0.20;0.20;;;22.80;99.90;;;;;;5032691;28;20043;-75
2023/08/18 12:03:22;;;;;;;0.20;0.20;;;22.80;99.90;;;;;;5051988;28;20048;-75
2023/08/18 12:05:48;;;;;;;0.20;0.20;;;22.80;99.90;;;;;;5065389;28;20120;-75
2023/08/18 12:08:14;;;;;;;0.20;0.20;;;22.80;99.90;;;;;;5053024;28;20159;-75
2023/08/18 12:10:42;;;;;;;0.20;0.20;;;22.90;99.90;;;;;;5049174;28;20801;-76
2023/08/18 12:13:08;;;;;;;0.17;0.17;;;23.00;99.90;;;;;;5032712;28;20067;-75
2023/08/18 12:15:34;;;;;;;0.20;0.20;;;23.00;99.90;;;;;;5067009;28;20048;-75
2023/08/18 12:17:59;;;;;;;0.20;0.20;;;23.00;99.90;;;;;;5053169;28;20048;-75
2023/08/18 12:20:26;;;;;;;0.20;0.20;;;23.00;99.90;;;;;;5049768;28;20046;-75
2023/08/18 12:22:52;;;;;;;0.20;0.20;;;23.00;99.90;;;;;;5050538;28;20044;-75
2023/08/18 12:25:20;;;;;;;0.20;0.20;;;23.10;99.90;;;;;;5044578;28;20058;-75
2023/08/18 12:27:49;;;;;;;0.20;0.20;;;23.20;99.90;;;;;;5052101;28;20033;-76
2023/08/18 12:30:16;;;;;;;0.13;0.13;;;23.20;99.90;;;;;;5067281;28;20403;-75
2023/08/18 12:32:44;;;;;;;0.20;0.20;;;23.30;99.90;;;;;;5053348;28;20044;-75
2023/08/18 12:35:13;;;;;;;0.20;0.20;;;23.30;99.90;;;;;;5052301;28;20045;-76
2023/08/18 12:37:38;;;;;;;0.20;0.20;;;23.40;99.90;;;;;;5049716;28;20095;-76
2023/08/18 12:40:05;;;;;;;1.08;0.40;;;23.40;99.90;;;;;;5045070;28;20396;-75
2023/08/18 12:42:32;;;;;;;0.20;0.20;;;23.40;99.90;;;;;;5051987;28;20428;-75
2023/08/18 12:44:57;;;;;;;0.20;0.20;;;23.50;99.90;;;;;;5050844;28;20044;-75
2023/08/18 12:47:23;;;;;;;0.10;0.10;;;23.60;99.90;;;;;;5052799;28;20392;-75